sensor_id;sensor_type;location;lat;lon;timestamp;pressure;altitude;pressure_sealevel;temperature;humidity
10646;BME280;5371;49.782;9.932;2023-03-14T00:01:35;97793.13;;;10.80;100.00
10646;BME280;5371;49.782;9.932;2023-03-14T00:04:03;97793.94;;;10.62;100.00
10646;BME280;5371;49.782;9.932;2023-03-14T00:06:31;97802.03;;;10.68;100.00
10646;BME280;5371;49.782;9.932;2023-03-14T00:08:58;97811.94;;;10.55;100.00
10646;BME280;5371;49.782;9.932;2023-03-14T00:11:24;97808.66;;;10.72;100.00
10646;BME280;5371;49.782;9.932;2023-03-14T00:13:52;97798.47;;;10.69;100.00
10646;BME280;5371;49.782;9.932;2023-03-14T00:16:19;97787.75;;;10.53;100.00
10646;BME280;5371;49.782;9.932;2023-03-14T00:18:48;97795.59;;;10.72;100.00
10646;BME280;5371;49.782;9.932;2023-03-14T00:21:15;97782.41;;;10.64;100.00
10646;BME280;5371;49.782;9.932;2023-03-14T00:23:42;97775.38;;;10.55;100.00
10646;BME280;5371;49.782;9.932;2023-03-14T00:26:11;97770.16;;;10.55;100.00
10646;BME280;5371;49.782;9.932;2023-03-14T00:28:39;97770.16;;;10.55;100.00
10646;BME280;5371;49.782;9.932;2023-03-14T00:31:08;97770.97;;;10.46;100.00
10646;BME280;5371;49.782;9.932;2023-03-14T00:33:35;97779.47;;;10.48;100.00
10646;BME280;5371;49.782;9.932;2023-03-14T00:36:05;97772.47;;;10.48;100.00
10646;BME280;5371;49.782;9.932;2023-03-14T00:38:37;97781.81;;;10.51;100.00
10646;BME280;5371;49.782;9.932;2023-03-14T00:41:05;97780.84;;;10.52;100.00
10646;BME280;5371;49.782;9.932;2023-03-14T00:43:33;97780.59;;;10.55;100.00
10646;BME280;5371;49.782;9.932;2023-03-14T00:46:00;97782.66;;;10.52;100.00
10646;BME280;5371;49.782;9.932;2023-03-14T00:48:28;97775.06;;;10.48;100.00
10646;BME280;5371;49.782;9.932;2023-03-14T00:50:55;97783.34;;;10.54;100.00
10646;BME280;5371;49.782;9.932;2023-03-14T00:53:24;97782.09;;;10.58;100.00
10646;BME280;5371;49.782;9.932;2023-03-14T00:55:51;97781.28;;;10.67;100.00
10646;BME280;5371;49.782;9.932;2023-03-14T00:58:18;97779.59;;;10.56;100.00
10646;BME280;5371;49.782;9.932;2023-03-14T01:00:45;97789.69;;;10.70;100.00
10646;BME280;5371;49.782;9.932;2023-03-14T01:03:14;97784.72;;;10.58;100.00
10646;BME280;5371;49.782;9.932;2023-03-14T01:05:41;97788.97;;;10.59;100.00
10646;BME280;5371;49.782;9.932;2023-03-14T01:08:08;97784.84;;;10.56;100.00
10646;BME280;5371;49.782;9.932;2023-03-14T01:10:39;97785.66;;;10.66;100.00
10646;BME280;5371;49.782;9.932;2023-03-14T01:13:06;97786.50;;;10.57;100.00
10646;BME280;5371;49.782;9.932;2023-03-14T01:15:35;97791.44;;;10.60;100.00
10646;BME280;5371;49.782;9.932;2023-03-14T01:18:03;97789.94;;;10.58;100.00
10646;BME280;5371;49.782;9.932;2023-03-14T01:20:30;97789.53;;;10.62;100.00
10646;BME280;5371;49.782;9.932;2023-03-14T01:22:57;97784.44;;;10.61;100.00
10646;BME280;5371;49.782;9.932;2023-03-14T01:25:24;97780.03;;;10.52;100.00
10646;BME280;5371;49.782;9.932;2023-03-14T01:27:53;97775.09;;;10.58;100.00
10646;BME280;5371;49.782;9.932;2023-03-14T01:30:20;97778.53;;;10.59;100.00
10646;BME280;5371;49.782;9.932;2023-03-14T01:32:47;97774.41;;;10.66;100.00
10646;BME280;5371;49.782;9.932;2023-03-14T01:35:14;97779.47;;;10.48;100.00
10646;BME280;5371;49.782;9.932;2023-03-14T01:37:41;97783.06;;;10.66;100.00
10646;BME280;5371;49.782;9.932;2023-03-14T01:40:13;97785.66;;;10.57;100.00
10646;BME280;5371;49.782;9.932;2023-03-14T01:42:45;97774.38;;;10.56;100.00
10646;BME280;5371;49.782;9.932;2023-03-14T01:48:20;97772.75;;;10.55;100.00
10646;BME280;5371;49.782;9.932;2023-03-14T01:50:47;97759.25;;;10.50;100.00
10646;BME280;5371;49.782;9.932;2023-03-14T01:53:14;97758.88;;;10.55;100.00
10646;BME280;5371;49.782;9.932;2023-03-14T01:55:43;97754.03;;;10.40;100.00
10646;BME280;5371;49.782;9.932;2023-03-14T01:58:10;97750.06;;;10.46;100.00
10646;BME280;5371;49.782;9.932;2023-03-14T02:00:37;97743.84;;;10.47;100.00
10646;BME280;5371;49.782;9.932;2023-03-14T02:03:09;97742.38;;;10.54;100.00
10646;BME280;5371;49.782;9.932;2023-03-14T02:05:40;97738.91;;;10.34;100.00
10646;BME280;5371;49.782;9.932;2023-03-14T02:08:18;97726.25;;;10.39;100.00
10646;BME280;5371;49.782;9.932;2023-03-14T02:10:59;97726.81;;;10.33;100.00
10646;BME280;5371;49.782;9.932;2023-03-14T02:13:56;97711.00;;;10.35;100.00
10646;BME280;5371;49.782;9.932;2023-03-14T02:16:45;97708.16;;;10.38;100.00
10646;BME280;5371;49.782;9.932;2023-03-14T02:22:35;97702.91;;;10.38;100.00
10646;BME280;5371;49.782;9.932;2023-03-14T02:25:08;97686.44;;;10.37;100.00
10646;BME280;5371;49.782;9.932;2023-03-14T02:27:40;97688.34;;;10.26;100.00
10646;BME280;5371;49.782;9.932;2023-03-14T02:30:11;97689.69;;;10.20;100.00
10646;BME280;5371;49.782;9.932;2023-03-14T02:32:43;97682.84;;;10.29;100.00
10646;BME280;5371;49.782;9.932;2023-03-14T02:35:16;97688.06;;;10.29;100.00
10646;BME280;5371;49.782;9.932;2023-03-14T02:37:48;97692.59;;;10.36;100.00
10646;BME280;5371;49.782;9.932;2023-03-14T02:40:18;97689.41;;;10.23;100.00
10646;BME280;5371;49.782;9.932;2023-03-14T02:42:49;97697.13;;;10.25;100.00
10646;BME280;5371;49.782;9.932;2023-03-14T02:45:39;97705.53;;;10.28;100.00
10646;BME280;5371;49.782;9.932;2023-03-14T02:48:11;97693.56;;;10.26;100.00
10646;BME280;5371;49.782;9.932;2023-03-14T02:50:41;97690.50;;;10.21;100.00
10646;BME280;5371;49.782;9.932;2023-03-14T02:53:08;97692.94;;;10.12;100.00
10646;BME280;5371;49.782;9.932;2023-03-14T02:55:35;97678.97;;;10.23;100.00
10646;BME280;5371;49.782;9.932;2023-03-14T02:58:10;97672.53;;;10.18;100.00
10646;BME280;5371;49.782;9.932;2023-03-14T03:00:37;97678.81;;;10.15;100.00
10646;BME280;5371;49.782;9.932;2023-03-14T03:03:07;97676.25;;;10.34;100.00
10646;BME280;5371;49.782;9.932;2023-03-14T03:05:34;97675.13;;;10.18;100.00
10646;BME280;5371;49.782;9.932;2023-03-14T03:08:02;97674.81;;;10.11;100.00
10646;BME280;5371;49.782;9.932;2023-03-14T03:10:30;97649.00;;;10.08;100.00
10646;BME280;5371;49.782;9.932;2023-03-14T03:12:58;97656.69;;;10.09;100.00
10646;BME280;5371;49.782;9.932;2023-03-14T03:15:28;97649.22;;;9.95;100.00
10646;BME280;5371;49.782;9.932;2023-03-14T03:17:55;97660.50;;;9.96;100.00
10646;BME280;5371;49.782;9.932;2023-03-14T03:20:22;97660.22;;;9.89;100.00
10646;BME280;5371;49.782;9.932;2023-03-14T03:22:49;97655.03;;;9.99;100.00
10646;BME280;5371;49.782;9.932;2023-03-14T03:25:17;97652.00;;;10.03;100.00
10646;BME280;5371;49.782;9.932;2023-03-14T03:27:45;97649.50;;;10.02;100.00
10646;BME280;5371;49.782;9.932;2023-03-14T03:30:15;97638.81;;;10.14;100.00
10646;BME280;5371;49.782;9.932;2023-03-14T03:32:43;97633.34;;;10.08;100.00
10646;BME280;5371;49.782;9.932;2023-03-14T03:35:11;97633.34;;;10.08;100.00
10646;BME280;5371;49.782;9.932;2023-03-14T03:37:39;97653.78;;;10.03;100.00
10646;BME280;5371;49.782;9.932;2023-03-14T03:40:07;97649.38;;;10.03;100.00
10646;BME280;5371;49.782;9.932;2023-03-14T03:42:35;97643.50;;;10.01;100.00
10646;BME280;5371;49.782;9.932;2023-03-14T03:45:06;97640.47;;;10.06;100.00
10646;BME280;5371;49.782;9.932;2023-03-14T03:47:37;97637.44;;;10.01;100.00
10646;BME280;5371;49.782;9.932;2023-03-14T03:50:06;97643.34;;;10.03;100.00
10646;BME280;5371;49.782;9.932;2023-03-14T03:52:34;97644.84;;;10.05;100.00
10646;BME280;5371;49.782;9.932;2023-03-14T03:55:01;97635.84;;;10.19;100.00
10646;BME280;5371;49.782;9.932;2023-03-14T03:57:28;97629.81;;;10.19;100.00
10646;BME280;5371;49.782;9.932;2023-03-14T03:59:56;97629.63;;;10.20;100.00
10646;BME280;5371;49.782;9.932;2023-03-14T04:02:22;97629.75;;;9.99;100.00
10646;BME280;5371;49.782;9.932;2023-03-14T04:04:50;97626.72;;;10.13;100.00
10646;BME280;5371;49.782;9.932;2023-03-14T04:07:19;97619.06;;;10.22;100.00
10646;BME280;5371;49.782;9.932;2023-03-14T04:09:46;97630.91;;;10.26;100.00
10646;BME280;5371;49.782;9.932;2023-03-14T04:12:32;97616.59;;;10.39;100.00
10646;BME280;5371;49.782;9.932;2023-03-14T04:15:06;97622.22;;;10.44;100.00
10646;BME280;5371;49.782;9.932;2023-03-14T04:17:34;97616.44;;;10.31;100.00
10646;BME280;5371;49.782;9.932;2023-03-14T04:20:01;97614.09;;;10.09;100.00
10646;BME280;5371;49.782;9.932;2023-03-14T04:22:36;97604.34;;;10.21;100.00
10646;BME280;5371;49.782;9.932;2023-03-14T04:25:04;97608.91;;;10.19;100.00
10646;BME280;5371;49.782;9.932;2023-03-14T04:27:35;97612.63;;;10.26;100.00
10646;BME280;5371;49.782;9.932;2023-03-14T04:30:07;97602.53;;;10.11;100.00
10646;BME280;5371;49.782;9.932;2023-03-14T04:32:46;97593.91;;;10.30;100.00
10646;BME280;5371;49.782;9.932;2023-03-14T04:35:14;97594.44;;;10.14;100.00
10646;BME280;5371;49.782;9.932;2023-03-14T04:37:42;97591.72;;;10.26;100.00
10646;BME280;5371;49.782;9.932;2023-03-14T04:40:11;97594.31;;;10.16;100.00
10646;BME280;5371;49.782;9.932;2023-03-14T04:42:39;97594.31;;;10.16;100.00
10646;BME280;5371;49.782;9.932;2023-03-14T04:45:07;97583.91;;;10.26;100.00
10646;BME280;5371;49.782;9.932;2023-03-14T04:47:37;97592.94;;;10.12;100.00
10646;BME280;5371;49.782;9.932;2023-03-14T04:50:04;97599.13;;;10.01;100.00
10646;BME280;5371;49.782;9.932;2023-03-14T04:52:31;97591.31;;;10.21;100.00
10646;BME280;5371;49.782;9.932;2023-03-14T04:55:01;97592.09;;;10.02;100.00
10646;BME280;5371;49.782;9.932;2023-03-14T04:57:28;97586.34;;;10.08;100.00
10646;BME280;5371;49.782;9.932;2023-03-14T04:59:55;97600.91;;;10.10;100.00
10646;BME280;5371;49.782;9.932;2023-03-14T05:02:40;97597.88;;;10.05;100.00
10646;BME280;5371;49.782;9.932;2023-03-14T05:05:30;97599.31;;;10.19;100.00
10646;BME280;5371;49.782;9.932;2023-03-14T05:08:03;97583.91;;;10.26;100.00
10646;BME280;5371;49.782;9.932;2023-03-14T05:10:52;97585.25;;;10.10;100.00
10646;BME280;5371;49.782;9.932;2023-03-14T05:13:39;97578.94;;;10.23;100.00
10646;BME280;5371;49.782;9.932;2023-03-14T05:16:25;97578.56;;;10.18;100.00
10646;BME280;5371;49.782;9.932;2023-03-14T05:19:00;97583.91;;;10.26;100.00
10646;BME280;5371;49.782;9.932;2023-03-14T05:21:37;97589.13;;;10.26;100.00
10646;BME280;5371;49.782;9.932;2023-03-14T05:24:16;97585.25;;;10.39;100.00
10646;BME280;5371;49.782;9.932;2023-03-14T05:26:58;97581.13;;;10.46;100.00
10646;BME280;5371;49.782;9.932;2023-03-14T05:29:33;97577.59;;;10.28;100.00
10646;BME280;5371;49.782;9.932;2023-03-14T05:32:07;97572.38;;;10.19;100.00
10646;BME280;5371;49.782;9.932;2023-03-14T05:34:57;97572.59;;;10.06;100.00
10646;BME280;5371;49.782;9.932;2023-03-14T05:37:44;97566.28;;;10.08;100.00
10646;BME280;5371;49.782;9.932;2023-03-14T05:40:31;97560.28;;;10.18;100.00
10646;BME280;5371;49.782;9.932;2023-03-14T05:43:06;97557.78;;;10.26;100.00
10646;BME280;5371;49.782;9.932;2023-03-14T05:46:00;97545.69;;;10.34;100.00
10646;BME280;5371;49.782;9.932;2023-03-14T05:48:27;97555.31;;;10.34;100.00
10646;BME280;5371;49.782;9.932;2023-03-14T05:51:12;97544.63;;;10.18;100.00
10646;BME280;5371;49.782;9.932;2023-03-14T05:54:01;97537.16;;;9.94;100.00
10646;BME280;5371;49.782;9.932;2023-03-14T05:56:50;97554.19;;;9.88;100.00
10646;BME280;5371;49.782;9.932;2023-03-14T05:59:48;97542.69;;;9.91;100.00
10646;BME280;5371;49.782;9.932;2023-03-14T06:02:34;97548.16;;;10.07;100.00
10646;BME280;5371;49.782;9.932;2023-03-14T06:05:10;97548.97;;;9.98;100.00
10646;BME280;5371;49.782;9.932;2023-03-14T06:07:37;97554.47;;;10.04;100.00
10646;BME280;5371;49.782;9.932;2023-03-14T06:10:06;97551.47;;;9.99;100.00
10646;BME280;5371;49.782;9.932;2023-03-14T06:12:33;97546.63;;;9.95;100.00
10646;BME280;5371;49.782;9.932;2023-03-14T06:15:02;97543.63;;;9.99;100.00
10646;BME280;5371;49.782;9.932;2023-03-14T06:17:29;97546.25;;;9.99;100.00
10646;BME280;5371;49.782;9.932;2023-03-14T06:20:02;97543.19;;;9.94;100.00
10646;BME280;5371;49.782;9.932;2023-03-14T06:22:31;97548.41;;;10.13;100.00
10646;BME280;5371;49.782;9.932;2023-03-14T06:24:58;97545.28;;;10.00;100.00
10646;BME280;5371;49.782;9.932;2023-03-14T06:27:25;97545.94;;;10.12;100.00
10646;BME280;5371;49.782;9.932;2023-03-14T06:29:55;97546.78;;;10.03;100.00
10646;BME280;5371;49.782;9.932;2023-03-14T06:32:24;97553.09;;;10.29;100.00
10646;BME280;5371;49.782;9.932;2023-03-14T06:34:54;97551.75;;;10.25;100.00
10646;BME280;5371;49.782;9.932;2023-03-14T06:37:22;97560.66;;;10.23;100.00
10646;BME280;5371;49.782;9.932;2023-03-14T06:39:51;97563.13;;;10.14;100.00
10646;BME280;5371;49.782;9.932;2023-03-14T06:42:38;97571.81;;;10.34;100.00
10646;BME280;5371;49.782;9.932;2023-03-14T06:45:07;97561.22;;;10.36;100.00
10646;BME280;5371;49.782;9.932;2023-03-14T06:47:36;97559.81;;;10.51;100.00
10646;BME280;5371;49.782;9.932;2023-03-14T06:50:05;97554.19;;;10.46;100.00
10646;BME280;5371;49.782;9.932;2023-03-14T06:52:33;97556.53;;;10.39;100.00
10646;BME280;5371;49.782;9.932;2023-03-14T06:55:00;97549.28;;;10.24;100.00
10646;BME280;5371;49.782;9.932;2023-03-14T06:57:27;97547.59;;;10.32;100.00
10646;BME280;5371;49.782;9.932;2023-03-14T06:59:54;97549.00;;;10.27;100.00
10646;BME280;5371;49.782;9.932;2023-03-14T07:02:22;97541.31;;;10.25;100.00
10646;BME280;5371;49.782;9.932;2023-03-14T07:04:51;97538.97;;;10.22;100.00
10646;BME280;5371;49.782;9.932;2023-03-14T07:07:18;97541.28;;;10.35;100.00
10646;BME280;5371;49.782;9.932;2023-03-14T07:09:45;97533.00;;;10.49;100.00
10646;BME280;5371;49.782;9.932;2023-03-14T07:12:12;97545.94;;;10.41;100.00
10646;BME280;5371;49.782;9.932;2023-03-14T07:14:39;97542.25;;;10.34;100.00
10646;BME280;5371;49.782;9.932;2023-03-14T07:17:06;97547.59;;;10.42;100.00
10646;BME280;5371;49.782;9.932;2023-03-14T07:19:33;97546.50;;;10.35;100.00
10646;BME280;5371;49.782;9.932;2023-03-14T07:22:01;97551.88;;;10.33;100.00
10646;BME280;5371;49.782;9.932;2023-03-14T07:24:28;97546.25;;;10.28;100.00
10646;BME280;5371;49.782;9.932;2023-03-14T07:26:55;97544.75;;;10.26;100.00
10646;BME280;5371;49.782;9.932;2023-03-14T07:29:23;97543.19;;;10.52;100.00
10646;BME280;5371;49.782;9.932;2023-03-14T07:31:50;97536.44;;;10.49;100.00
10646;BME280;5371;49.782;9.932;2023-03-14T07:34:19;97549.50;;;10.40;100.00
10646;BME280;5371;49.782;9.932;2023-03-14T07:36:46;97550.06;;;10.43;100.00
10646;BME280;5371;49.782;9.932;2023-03-14T07:39:14;97536.06;;;10.44;100.00
10646;BME280;5371;49.782;9.932;2023-03-14T07:41:57;97548.94;;;10.56;100.00
10646;BME280;5371;49.782;9.932;2023-03-14T07:44:24;97555.13;;;10.64;100.00
10646;BME280;5371;49.782;9.932;2023-03-14T07:46:51;97553.09;;;10.39;100.00
10646;BME280;5371;49.782;9.932;2023-03-14T07:49:18;97553.78;;;10.41;100.00
10646;BME280;5371;49.782;9.932;2023-03-14T07:51:47;97562.03;;;10.46;100.00
10646;BME280;5371;49.782;9.932;2023-03-14T07:54:15;97563.53;;;10.39;100.00
10646;BME280;5371;49.782;9.932;2023-03-14T07:56:42;97564.09;;;10.33;100.00
10646;BME280;5371;49.782;9.932;2023-03-14T07:59:09;97564.38;;;10.30;100.00
10646;BME280;5371;49.782;9.932;2023-03-14T08:01:37;97556.81;;;10.46;100.00
10646;BME280;5371;49.782;9.932;2023-03-14T08:04:04;97553.66;;;10.33;100.00
10646;BME280;5371;49.782;9.932;2023-03-14T08:06:31;97555.53;;;10.50;100.00
10646;BME280;5371;49.782;9.932;2023-03-14T08:08:58;97555.38;;;10.71;100.00
10646;BME280;5371;49.782;9.932;2023-03-14T08:11:27;97555.78;;;10.66;100.00
10646;BME280;5371;49.782;9.932;2023-03-14T08:13:54;97559.34;;;10.65;100.00
10646;BME280;5371;49.782;9.932;2023-03-14T08:16:21;97564.03;;;10.71;100.00
10646;BME280;5371;49.782;9.932;2023-03-14T08:18:48;97559.59;;;10.81;100.00
10646;BME280;5371;49.782;9.932;2023-03-14T08:21:15;97553.78;;;10.87;100.00
10646;BME280;5371;49.782;9.932;2023-03-14T08:23:42;97558.47;;;10.84;100.00
10646;BME280;5371;49.782;9.932;2023-03-14T08:26:09;97566.09;;;11.05;100.00
10646;BME280;5371;49.782;9.932;2023-03-14T08:28:37;97550.22;;;10.88;100.00
10646;BME280;5371;49.782;9.932;2023-03-14T08:31:05;97553.13;;;11.13;100.00
10646;BME280;5371;49.782;9.932;2023-03-14T08:33:32;97556.28;;;11.16;100.00
10646;BME280;5371;49.782;9.932;2023-03-14T08:36:00;97559.41;;;11.20;100.00
10646;BME280;5371;49.782;9.932;2023-03-14T08:38:27;97559.63;;;11.09;100.00
10646;BME280;5371;49.782;9.932;2023-03-14T08:40:56;97567.53;;;10.90;100.00
10646;BME280;5371;49.782;9.932;2023-03-14T08:43:24;97565.00;;;11.07;100.00
10646;BME280;5371;49.782;9.932;2023-03-14T08:45:53;97563.19;;;11.62;100.00
10646;BME280;5371;49.782;9.932;2023-03-14T08:48:20;97555.63;;;11.59;100.00
10646;BME280;5371;49.782;9.932;2023-03-14T08:50:47;97570.94;;;11.82;100.00
10646;BME280;5371;49.782;9.932;2023-03-14T08:53:14;97553.88;;;12.13;100.00
10646;BME280;5371;49.782;9.932;2023-03-14T08:55:41;97563.91;;;12.61;100.00
10646;BME280;5371;49.782;9.932;2023-03-14T08:58:08;97548.75;;;12.47;100.00
10646;BME280;5371;49.782;9.932;2023-03-14T09:00:35;97561.13;;;12.37;100.00
10646;BME280;5371;49.782;9.932;2023-03-14T09:03:04;97569.09;;;12.10;100.00
10646;BME280;5371;49.782;9.932;2023-03-14T09:05:32;97554.78;;;12.04;100.00
10646;BME280;5371;49.782;9.932;2023-03-14T09:07:59;97570.56;;;11.94;100.00
10646;BME280;5371;49.782;9.932;2023-03-14T09:10:26;97567.19;;;12.02;100.00
10646;BME280;5371;49.782;9.932;2023-03-14T09:12:54;97571.47;;;12.03;100.00
10646;BME280;5371;49.782;9.932;2023-03-14T09:15:22;97566.41;;;12.02;100.00
10646;BME280;5371;49.782;9.932;2023-03-14T09:17:49;97574.97;;;11.76;100.00
10646;BME280;5371;49.782;9.932;2023-03-14T09:20:18;97569.09;;;11.65;100.00
10646;BME280;5371;49.782;9.932;2023-03-14T09:22:44;97585.69;;;11.55;100.00
10646;BME280;5371;49.782;9.932;2023-03-14T09:25:11;97573.31;;;11.48;100.00
10646;BME280;5371;49.782;9.932;2023-03-14T09:27:38;97580.56;;;11.36;100.00
10646;BME280;5371;49.782;9.932;2023-03-14T09:30:06;97583.19;;;11.36;100.00
10646;BME280;5371;49.782;9.932;2023-03-14T09:32:33;97583.91;;;11.56;100.00
10646;BME280;5371;49.782;9.932;2023-03-14T09:35:00;97590.00;;;11.47;100.00
10646;BME280;5371;49.782;9.932;2023-03-14T09:37:29;97590.56;;;11.68;100.00
10646;BME280;5371;49.782;9.932;2023-03-14T09:39:56;97580.53;;;11.91;100.00
10646;BME280;5371;49.782;9.932;2023-03-14T09:42:25;97587.69;;;12.07;100.00
10646;BME280;5371;49.782;9.932;2023-03-14T09:44:56;97592.59;;;12.02;100.00
10646;BME280;5371;49.782;9.932;2023-03-14T09:47:24;97589.72;;;12.13;100.00
10646;BME280;5371;49.782;9.932;2023-03-14T09:49:52;97597.66;;;12.03;100.00
10646;BME280;5371;49.782;9.932;2023-03-14T09:52:22;97595.28;;;11.92;100.00
10646;BME280;5371;49.782;9.932;2023-03-14T09:54:54;97598.59;;;12.02;100.00
10646;BME280;5371;49.782;9.932;2023-03-14T09:57:24;97590.09;;;12.00;100.00
10646;BME280;5371;49.782;9.932;2023-03-14T09:59:54;97591.91;;;11.99;100.00
10646;BME280;5371;49.782;9.932;2023-03-14T10:02:24;97591.28;;;12.23;100.00
10646;BME280;5371;49.782;9.932;2023-03-14T10:04:52;97594.78;;;12.32;100.00
10646;BME280;5371;49.782;9.932;2023-03-14T10:07:27;97602.66;;;12.32;100.00
10646;BME280;5371;49.782;9.932;2023-03-14T10:09:57;97598.09;;;12.34;100.00
10646;BME280;5371;49.782;9.932;2023-03-14T10:12:31;97589.34;;;12.25;100.00
10646;BME280;5371;49.782;9.932;2023-03-14T10:15:03;97594.66;;;11.98;100.00
10646;BME280;5371;49.782;9.932;2023-03-14T10:17:38;97591.56;;;11.85;100.00
10646;BME280;5371;49.782;9.932;2023-03-14T10:20:07;97578.41;;;12.12;100.00
10646;BME280;5371;49.782;9.932;2023-03-14T10:22:44;97585.69;;;12.62;100.00
10646;BME280;5371;49.782;9.932;2023-03-14T10:25:26;97568.75;;;12.74;100.00
10646;BME280;5371;49.782;9.932;2023-03-14T10:27:53;97599.69;;;12.96;100.00
10646;BME280;5371;49.782;9.932;2023-03-14T10:30:29;97580.97;;;12.91;100.00
10646;BME280;5371;49.782;9.932;2023-03-14T10:32:57;97579.00;;;13.61;100.00
10646;BME280;5371;49.782;9.932;2023-03-14T10:35:24;97573.19;;;13.07;100.00
10646;BME280;5371;49.782;9.932;2023-03-14T10:37:53;97568.09;;;13.40;100.00
10646;BME280;5371;49.782;9.932;2023-03-14T10:40:28;97570.03;;;13.80;100.00
10646;BME280;5371;49.782;9.932;2023-03-14T10:42:58;97568.25;;;13.97;100.00
10646;BME280;5371;49.782;9.932;2023-03-14T10:45:32;97561.16;;;13.65;100.00
10646;BME280;5371;49.782;9.932;2023-03-14T10:48:17;97548.22;;;14.04;100.00
10646;BME280;5371;49.782;9.932;2023-03-14T10:50:49;97558.59;;;14.13;98.34
10646;BME280;5371;49.782;9.932;2023-03-14T10:53:17;97555.09;;;13.80;100.00
10646;BME280;5371;49.782;9.932;2023-03-14T10:55:46;97556.75;;;13.73;100.00
10646;BME280;5371;49.782;9.932;2023-03-14T10:58:22;97552.75;;;13.53;100.00
10646;BME280;5371;49.782;9.932;2023-03-14T11:00:54;97554.09;;;13.65;100.00
10646;BME280;5371;49.782;9.932;2023-03-14T11:03:26;97546.66;;;13.44;100.00
10646;BME280;5371;49.782;9.932;2023-03-14T11:05:57;97552.44;;;13.14;100.00
10646;BME280;5371;49.782;9.932;2023-03-14T11:08:29;97549.88;;;13.30;100.00
10646;BME280;5371;49.782;9.932;2023-03-14T11:11:08;97547.81;;;13.58;100.00
10646;BME280;5371;49.782;9.932;2023-03-14T11:13:39;97555.19;;;13.46;100.00
10646;BME280;5371;49.782;9.932;2023-03-14T11:16:14;97560.03;;;13.25;100.00
10646;BME280;5371;49.782;9.932;2023-03-14T11:19:13;97553.03;;;12.74;100.00
10646;BME280;5371;49.782;9.932;2023-03-14T11:21:51;97548.66;;;12.83;100.00
10646;BME280;5371;49.782;9.932;2023-03-14T11:24:38;97566.53;;;12.61;100.00
10646;BME280;5371;49.782;9.932;2023-03-14T11:27:17;97554.44;;;12.43;100.00
10646;BME280;5371;49.782;9.932;2023-03-14T11:29:51;97555.66;;;12.30;100.00
10646;BME280;5371;49.782;9.932;2023-03-14T11:32:26;97547.75;;;12.48;100.00
10646;BME280;5371;49.782;9.932;2023-03-14T11:34:56;97551.78;;;12.60;100.00
10646;BME280;5371;49.782;9.932;2023-03-14T11:37:29;97557.41;;;12.99;100.00
10646;BME280;5371;49.782;9.932;2023-03-14T11:40:06;97559.22;;;13.33;100.00
10646;BME280;5371;49.782;9.932;2023-03-14T11:42:37;97555.25;;;12.95;100.00
10646;BME280;5371;49.782;9.932;2023-03-14T11:45:14;97553.78;;;12.92;100.00
10646;BME280;5371;49.782;9.932;2023-03-14T11:47:44;97559.09;;;12.74;100.00
10646;BME280;5371;49.782;9.932;2023-03-14T11:50:17;97559.97;;;12.40;100.00
10646;BME280;5371;49.782;9.932;2023-03-14T11:52:48;97545.97;;;12.49;100.00
10646;BME280;5371;49.782;9.932;2023-03-14T11:55:19;97553.84;;;12.31;100.00
10646;BME280;5371;49.782;9.932;2023-03-14T11:57:56;97576.47;;;12.14;100.00
10646;BME280;5371;49.782;9.932;2023-03-14T12:00:25;97565.31;;;12.12;100.00
10646;BME280;5371;49.782;9.932;2023-03-14T12:02:56;97563.47;;;12.05;100.00
10646;BME280;5371;49.782;9.932;2023-03-14T12:05:34;97562.63;;;11.86;100.00
10646;BME280;5371;49.782;9.932;2023-03-14T12:08:25;97558.38;;;11.85;100.00
10646;BME280;5371;49.782;9.932;2023-03-14T12:11:00;97553.22;;;11.48;100.00
10646;BME280;5371;49.782;9.932;2023-03-14T12:13:32;97565.00;;;11.35;100.00
10646;BME280;5371;49.782;9.932;2023-03-14T12:16:03;97560.75;;;11.34;100.00
10646;BME280;5371;49.782;9.932;2023-03-14T12:18:32;97563.31;;;11.16;100.00
10646;BME280;5371;49.782;9.932;2023-03-14T12:21:02;97544.47;;;11.12;100.00
10646;BME280;5371;49.782;9.932;2023-03-14T12:23:36;97557.03;;;11.09;100.00
10646;BME280;5371;49.782;9.932;2023-03-14T12:26:16;97556.38;;;10.97;100.00
10646;BME280;5371;49.782;9.932;2023-03-14T12:28:49;97550.91;;;10.91;100.00
10646;BME280;5371;49.782;9.932;2023-03-14T12:31:37;97546.41;;;10.83;100.00
10646;BME280;5371;49.782;9.932;2023-03-14T12:34:26;97544.75;;;10.82;100.00
10646;BME280;5371;49.782;9.932;2023-03-14T12:36:59;97540.91;;;10.76;100.00
10646;BME280;5371;49.782;9.932;2023-03-14T12:39:35;97537.69;;;10.92;100.00
10646;BME280;5371;49.782;9.932;2023-03-14T12:42:08;97552.19;;;10.77;100.00
10646;BME280;5371;49.782;9.932;2023-03-14T12:44:47;97544.03;;;10.90;100.00
10646;BME280;5371;49.782;9.932;2023-03-14T12:50:43;97552.41;;;10.83;100.00
10646;BME280;5371;49.782;9.932;2023-03-14T12:56:22;97555.22;;;10.72;100.00
10646;BME280;5371;49.782;9.932;2023-03-14T13:01:47;97559.91;;;10.69;100.00
10646;BME280;5371;49.782;9.932;2023-03-14T13:04:15;97556.69;;;10.84;100.00
10646;BME280;5371;49.782;9.932;2023-03-14T13:06:49;97557.91;;;10.90;100.00
10646;BME280;5371;49.782;9.932;2023-03-14T13:09:53;97556.22;;;10.99;100.00
10646;BME280;5371;49.782;9.932;2023-03-14T13:12:27;97556.88;;;11.10;100.00
10646;BME280;5371;49.782;9.932;2023-03-14T13:14:59;97560.88;;;11.05;100.00
10646;BME280;5371;49.782;9.932;2023-03-14T13:17:31;97574.16;;;11.21;100.00
10646;BME280;5371;49.782;9.932;2023-03-14T13:20:02;97584.09;;;11.45;100.00
10646;BME280;5371;49.782;9.932;2023-03-14T13:22:34;97584.63;;;11.11;100.00
10646;BME280;5371;49.782;9.932;2023-03-14T13:25:06;97597.84;;;10.82;100.00
10646;BME280;5371;49.782;9.932;2023-03-14T13:27:34;97597.84;;;10.82;100.00
10646;BME280;5371;49.782;9.932;2023-03-14T13:30:13;97630.03;;;10.73;100.00
10646;BME280;5371;49.782;9.932;2023-03-14T13:32:43;97670.44;;;10.69;100.00
10646;BME280;5371;49.782;9.932;2023-03-14T13:35:19;97689.56;;;10.41;100.00
10646;BME280;5371;49.782;9.932;2023-03-14T13:37:52;97707.38;;;10.17;100.00